sensor_id;sensor_type;location;lat;lon;timestamp;pressure;altitude;pressure_sealevel;temperature;humidity
7918;BME280;4004;42.624;23.386;2023-05-19T00:02:16;94372.72;;;11.75;100.00
7918;BME280;4004;42.624;23.386;2023-05-19T00:04:45;94368.00;;;11.69;100.00
7918;BME280;4004;42.624;23.386;2023-05-19T00:07:17;94365.50;;;11.79;100.00
7918;BME280;4004;42.624;23.386;2023-05-19T00:09:44;94362.56;;;11.65;100.00
7918;BME280;4004;42.624;23.386;2023-05-19T00:12:12;94368.41;;;11.71;100.00
7918;BME280;4004;42.624;23.386;2023-05-19T00:14:39;94360.13;;;11.79;100.00
7918;BME280;4004;42.624;23.386;2023-05-19T00:17:07;94363.47;;;11.73;100.00
7918;BME280;4004;42.624;23.386;2023-05-19T00:19:34;94357.22;;;11.69;100.00
7918;BME280;4004;42.624;23.386;2023-05-19T00:22:02;94354.91;;;11.67;100.00
7918;BME280;4004;42.624;23.386;2023-05-19T00:24:31;94342.91;;;11.65;100.00
7918;BME280;4004;42.624;23.386;2023-05-19T00:26:58;94354.81;;;11.64;100.00
7918;BME280;4004;42.624;23.386;2023-05-19T00:29:25;94347.50;;;11.64;100.00
7918;BME280;4004;42.624;23.386;2023-05-19T00:31:51;94343.41;;;11.70;100.00
7918;BME280;4004;42.624;23.386;2023-05-19T00:34:18;94351.56;;;11.74;100.00
7918;BME280;4004;42.624;23.386;2023-05-19T00:36:45;94357.94;;;11.66;100.00
7918;BME280;4004;42.624;23.386;2023-05-19T00:39:12;94352.38;;;11.78;100.00
7918;BME280;4004;42.624;23.386;2023-05-19T00:41:40;94355.94;;;11.82;100.00
7918;BME280;4004;42.624;23.386;2023-05-19T00:44:06;94347.91;;;11.86;100.00
7918;BME280;4004;42.624;23.386;2023-05-19T00:46:33;94339.22;;;11.73;100.00
7918;BME280;4004;42.624;23.386;2023-05-19T00:49:00;94333.69;;;11.85;100.00
7918;BME280;4004;42.624;23.386;2023-05-19T00:51:27;94341.75;;;11.85;100.00
7918;BME280;4004;42.624;23.386;2023-05-19T00:53:55;94335.94;;;11.83;100.00
7918;BME280;4004;42.624;23.386;2023-05-19T00:56:23;94338.78;;;11.71;100.00
7918;BME280;4004;42.624;23.386;2023-05-19T00:58:52;94338.75;;;11.67;100.00
7918;BME280;4004;42.624;23.386;2023-05-19T01:01:20;94336.09;;;11.51;100.00
7918;BME280;4004;42.624;23.386;2023-05-19T01:03:47;94341.28;;;11.60;100.00
7918;BME280;4004;42.624;23.386;2023-05-19T01:06:14;94341.13;;;11.72;100.00
7918;BME280;4004;42.624;23.386;2023-05-19T01:08:43;94344.19;;;11.71;100.00
7918;BME280;4004;42.624;23.386;2023-05-19T01:11:10;94348.03;;;11.70;100.00
7918;BME280;4004;42.624;23.386;2023-05-19T01:13:37;94345.69;;;11.68;100.00
7918;BME280;4004;42.624;23.386;2023-05-19T01:16:09;94346.09;;;11.70;100.00
7918;BME280;4004;42.624;23.386;2023-05-19T01:18:42;94357.66;;;11.71;100.00
7918;BME280;4004;42.624;23.386;2023-05-19T01:24:23;94348.28;;;11.65;100.00
7918;BME280;4004;42.624;23.386;2023-05-19T01:27:23;94353.53;;;11.57;100.00
7918;BME280;4004;42.624;23.386;2023-05-19T01:33:02;94346.88;;;11.51;100.00
7918;BME280;4004;42.624;23.386;2023-05-19T01:35:31;94345.34;;;11.50;100.00
7918;BME280;4004;42.624;23.386;2023-05-19T01:37:59;94343.84;;;11.53;100.00
7918;BME280;4004;42.624;23.386;2023-05-19T01:40:27;94344.13;;;11.48;100.00
7918;BME280;4004;42.624;23.386;2023-05-19T01:42:56;94343.06;;;11.52;100.00
7918;BME280;4004;42.624;23.386;2023-05-19T01:45:23;94349.22;;;11.53;100.00
7918;BME280;4004;42.624;23.386;2023-05-19T01:47:54;94350.38;;;11.52;100.00
7918;BME280;4004;42.624;23.386;2023-05-19T01:50:21;94338.38;;;11.49;100.00
7918;BME280;4004;42.624;23.386;2023-05-19T01:52:48;94350.78;;;11.34;100.00
7918;BME280;4004;42.624;23.386;2023-05-19T01:55:16;94348.66;;;11.44;100.00
7918;BME280;4004;42.624;23.386;2023-05-19T01:57:49;94352.25;;;11.51;100.00
7918;BME280;4004;42.624;23.386;2023-05-19T02:00:29;94349.22;;;11.53;100.00
7918;BME280;4004;42.624;23.386;2023-05-19T02:03:15;94358.78;;;11.50;100.00
7918;BME280;4004;42.624;23.386;2023-05-19T02:05:50;94356.44;;;11.49;100.00
7918;BME280;4004;42.624;23.386;2023-05-19T02:08:26;94350.28;;;11.48;100.00
7918;BME280;4004;42.624;23.386;2023-05-19T02:10:59;94350.63;;;11.47;100.00
7918;BME280;4004;42.624;23.386;2023-05-19T02:13:32;94343.91;;;11.37;100.00
7918;BME280;4004;42.624;23.386;2023-05-19T02:16:03;94350.28;;;11.29;100.00
7918;BME280;4004;42.624;23.386;2023-05-19T02:18:32;94348.78;;;11.31;100.00
7918;BME280;4004;42.624;23.386;2023-05-19T02:20:59;94355.41;;;11.34;100.00
7918;BME280;4004;42.624;23.386;2023-05-19T02:23:26;94353.81;;;11.13;100.00
7918;BME280;4004;42.624;23.386;2023-05-19T02:25:54;94353.19;;;11.20;100.00
7918;BME280;4004;42.624;23.386;2023-05-19T02:28:21;94348.09;;;11.15;100.00
7918;BME280;4004;42.624;23.386;2023-05-19T02:30:47;94356.16;;;11.15;100.00
7918;BME280;4004;42.624;23.386;2023-05-19T02:33:14;94355.25;;;11.07;100.00
7918;BME280;4004;42.624;23.386;2023-05-19T02:35:43;94355.63;;;10.90;100.00
7918;BME280;4004;42.624;23.386;2023-05-19T02:38:09;94361.94;;;10.97;100.00
7918;BME280;4004;42.624;23.386;2023-05-19T02:40:36;94357.88;;;10.88;100.00
7918;BME280;4004;42.624;23.386;2023-05-19T02:43:03;94362.91;;;10.89;100.00
7918;BME280;4004;42.624;23.386;2023-05-19T02:45:29;94359.44;;;10.89;100.00
7918;BME280;4004;42.624;23.386;2023-05-19T02:47:56;94361.09;;;10.77;100.00
7918;BME280;4004;42.624;23.386;2023-05-19T02:50:24;94359.56;;;10.76;100.00
7918;BME280;4004;42.624;23.386;2023-05-19T02:52:52;94363.22;;;10.68;100.00
7918;BME280;4004;42.624;23.386;2023-05-19T02:55:19;94363.06;;;10.61;100.00
7918;BME280;4004;42.624;23.386;2023-05-19T02:57:46;94357.50;;;10.70;100.00
7918;BME280;4004;42.624;23.386;2023-05-19T03:00:13;94351.41;;;10.73;100.00
7918;BME280;4004;42.624;23.386;2023-05-19T03:02:40;94365.81;;;10.65;100.00
7918;BME280;4004;42.624;23.386;2023-05-19T03:05:08;94341.38;;;10.54;100.00
7918;BME280;4004;42.624;23.386;2023-05-19T03:07:35;94365.38;;;10.78;100.00
7918;BME280;4004;42.624;23.386;2023-05-19T03:10:04;94371.53;;;10.79;100.00
7918;BME280;4004;42.624;23.386;2023-05-19T03:12:32;94375.22;;;10.90;100.00
7918;BME280;4004;42.624;23.386;2023-05-19T03:14:59;94377.59;;;10.92;100.00
7918;BME280;4004;42.624;23.386;2023-05-19T03:17:26;94378.94;;;11.02;100.00
7918;BME280;4004;42.624;23.386;2023-05-19T03:19:58;94381.78;;;11.09;100.00
7918;BME280;4004;42.624;23.386;2023-05-19T03:22:25;94373.06;;;11.15;100.00
7918;BME280;4004;42.624;23.386;2023-05-19T03:24:51;94374.94;;;11.50;100.00
7918;BME280;4004;42.624;23.386;2023-05-19T03:27:20;94377.06;;;11.80;100.00
7918;BME280;4004;42.624;23.386;2023-05-19T03:29:46;94369.41;;;12.01;100.00
7918;BME280;4004;42.624;23.386;2023-05-19T03:32:13;94369.34;;;12.44;100.00
7918;BME280;4004;42.624;23.386;2023-05-19T03:34:40;94368.63;;;12.97;100.00
7918;BME280;4004;42.624;23.386;2023-05-19T03:37:06;94374.63;;;13.40;100.00
7918;BME280;4004;42.624;23.386;2023-05-19T03:39:35;94379.38;;;13.84;100.00
7918;BME280;4004;42.624;23.386;2023-05-19T03:42:01;94382.94;;;14.29;100.00
7918;BME280;4004;42.624;23.386;2023-05-19T03:44:29;94378.13;;;14.52;100.00
7918;BME280;4004;42.624;23.386;2023-05-19T03:46:56;94378.25;;;14.67;100.00
7918;BME280;4004;42.624;23.386;2023-05-19T03:49:23;94375.50;;;15.15;100.00
7918;BME280;4004;42.624;23.386;2023-05-19T03:51:50;94389.84;;;15.96;97.83
7918;BME280;4004;42.624;23.386;2023-05-19T03:54:16;94394.63;;;16.39;92.93
7918;BME280;4004;42.624;23.386;2023-05-19T03:56:45;94395.22;;;15.82;92.52
7918;BME280;4004;42.624;23.386;2023-05-19T03:59:12;94392.78;;;15.62;93.79
7918;BME280;4004;42.624;23.386;2023-05-19T04:01:40;94392.59;;;15.26;94.96
7918;BME280;4004;42.624;23.386;2023-05-19T04:04:07;94386.97;;;14.90;97.19
7918;BME280;4004;42.624;23.386;2023-05-19T04:06:33;94388.63;;;14.58;100.00
7918;BME280;4004;42.624;23.386;2023-05-19T04:09:01;94382.25;;;14.39;100.00
7918;BME280;4004;42.624;23.386;2023-05-19T04:11:29;94390.44;;;14.46;100.00
7918;BME280;4004;42.624;23.386;2023-05-19T04:13:56;94392.38;;;14.90;100.00
7918;BME280;4004;42.624;23.386;2023-05-19T04:16:22;94402.50;;;15.70;96.87
7918;BME280;4004;42.624;23.386;2023-05-19T04:18:51;94409.03;;;16.93;91.78
7918;BME280;4004;42.624;23.386;2023-05-19T04:21:17;94412.31;;;18.01;79.46
7918;BME280;4004;42.624;23.386;2023-05-19T04:23:46;94418.53;;;18.64;72.89
7918;BME280;4004;42.624;23.386;2023-05-19T04:26:13;94423.63;;;19.94;63.05
7918;BME280;4004;42.624;23.386;2023-05-19T04:28:40;94424.72;;;20.65;58.01
7918;BME280;4004;42.624;23.386;2023-05-19T04:31:09;94420.00;;;21.64;53.62
7918;BME280;4004;42.624;23.386;2023-05-19T04:33:37;94428.25;;;22.44;51.76
7918;BME280;4004;42.624;23.386;2023-05-19T04:36:05;94430.41;;;23.05;49.24
7918;BME280;4004;42.624;23.386;2023-05-19T04:38:34;94433.44;;;23.73;47.33
7918;BME280;4004;42.624;23.386;2023-05-19T04:41:01;94428.25;;;23.91;46.63
7918;BME280;4004;42.624;23.386;2023-05-19T04:43:28;94421.88;;;23.94;45.62
7918;BME280;4004;42.624;23.386;2023-05-19T04:45:56;94425.22;;;24.44;44.62
7918;BME280;4004;42.624;23.386;2023-05-19T04:48:23;94428.00;;;24.70;44.43
7918;BME280;4004;42.624;23.386;2023-05-19T04:50:50;94425.78;;;25.03;43.48
7918;BME280;4004;42.624;23.386;2023-05-19T04:53:18;94430.19;;;24.88;43.07
7918;BME280;4004;42.624;23.386;2023-05-19T04:55:46;94428.88;;;25.05;42.41
7918;BME280;4004;42.624;23.386;2023-05-19T04:58:13;94428.97;;;25.14;42.21
7918;BME280;4004;42.624;23.386;2023-05-19T05:00:41;94432.66;;;24.86;42.07
7918;BME280;4004;42.624;23.386;2023-05-19T05:03:08;94438.00;;;25.15;42.01
7918;BME280;4004;42.624;23.386;2023-05-19T05:05:34;94436.34;;;25.17;41.53
7918;BME280;4004;42.624;23.386;2023-05-19T05:08:01;94439.09;;;25.43;41.28
7918;BME280;4004;42.624;23.386;2023-05-19T05:10:29;94434.03;;;25.76;40.59
7918;BME280;4004;42.624;23.386;2023-05-19T05:12:57;94432.41;;;26.45;39.65
7918;BME280;4004;42.624;23.386;2023-05-19T05:15:25;94429.94;;;26.60;38.79
7918;BME280;4004;42.624;23.386;2023-05-19T05:17:53;94425.25;;;27.19;37.91
7918;BME280;4004;42.624;23.386;2023-05-19T05:20:21;94428.91;;;27.66;36.72
7918;BME280;4004;42.624;23.386;2023-05-19T05:22:48;94435.03;;;28.35;35.86
7918;BME280;4004;42.624;23.386;2023-05-19T05:25:16;94428.81;;;28.86;35.12
7918;BME280;4004;42.624;23.386;2023-05-19T05:27:45;94437.06;;;28.25;35.07
7918;BME280;4004;42.624;23.386;2023-05-19T05:30:12;94430.81;;;28.76;34.62
7918;BME280;4004;42.624;23.386;2023-05-19T05:32:38;94436.44;;;29.33;33.93
7918;BME280;4004;42.624;23.386;2023-05-19T05:35:06;94435.38;;;29.88;33.23
7918;BME280;4004;42.624;23.386;2023-05-19T05:37:33;94437.84;;;30.01;32.78
7918;BME280;4004;42.624;23.386;2023-05-19T05:39:59;94443.13;;;30.53;32.28
7918;BME280;4004;42.624;23.386;2023-05-19T05:42:26;94445.44;;;30.84;31.63
7918;BME280;4004;42.624;23.386;2023-05-19T05:44:54;94437.41;;;30.86;31.53
7918;BME280;4004;42.624;23.386;2023-05-19T05:47:21;94445.13;;;31.12;31.01
7918;BME280;4004;42.624;23.386;2023-05-19T05:49:48;94450.66;;;31.62;30.35
7918;BME280;4004;42.624;23.386;2023-05-19T05:52:17;94443.66;;;31.87;29.71
7918;BME280;4004;42.624;23.386;2023-05-19T05:54:46;94450.75;;;32.09;29.38
7918;BME280;4004;42.624;23.386;2023-05-19T05:57:14;94457.59;;;31.72;29.76
7918;BME280;4004;42.624;23.386;2023-05-19T05:59:40;94458.75;;;31.30;30.52
7918;BME280;4004;42.624;23.386;2023-05-19T06:02:11;94461.13;;;31.52;29.56
7918;BME280;4004;42.624;23.386;2023-05-19T06:04:37;94466.03;;;31.78;29.39
7918;BME280;4004;42.624;23.386;2023-05-19T06:07:05;94471.03;;;31.94;29.00
7918;BME280;4004;42.624;23.386;2023-05-19T06:09:31;94467.25;;;31.77;29.37
7918;BME280;4004;42.624;23.386;2023-05-19T06:11:58;94467.53;;;31.58;29.57
7918;BME280;4004;42.624;23.386;2023-05-19T06:14:25;94463.16;;;31.37;30.28
7918;BME280;4004;42.624;23.386;2023-05-19T06:16:52;94470.13;;;30.82;30.86
7918;BME280;4004;42.624;23.386;2023-05-19T06:19:20;94463.03;;;30.51;31.36
7918;BME280;4004;42.624;23.386;2023-05-19T06:21:49;94466.09;;;30.14;31.94
7918;BME280;4004;42.624;23.386;2023-05-19T06:24:16;94469.41;;;30.28;32.26
7918;BME280;4004;42.624;23.386;2023-05-19T06:26:42;94468.41;;;29.77;31.90
7918;BME280;4004;42.624;23.386;2023-05-19T06:29:09;94463.75;;;29.17;33.11
7918;BME280;4004;42.624;23.386;2023-05-19T06:31:36;94460.34;;;28.79;33.37
7918;BME280;4004;42.624;23.386;2023-05-19T06:34:03;94461.63;;;28.23;33.53
7918;BME280;4004;42.624;23.386;2023-05-19T06:36:31;94458.25;;;28.00;34.03
7918;BME280;4004;42.624;23.386;2023-05-19T06:38:59;94464.41;;;27.95;34.87
7918;BME280;4004;42.624;23.386;2023-05-19T06:41:26;94455.47;;;27.82;35.22
7918;BME280;4004;42.624;23.386;2023-05-19T06:43:52;94466.94;;;26.81;35.31
7918;BME280;4004;42.624;23.386;2023-05-19T06:46:19;94468.56;;;26.25;36.15
7918;BME280;4004;42.624;23.386;2023-05-19T06:48:46;94459.91;;;25.18;38.89
7918;BME280;4004;42.624;23.386;2023-05-19T06:51:12;94460.69;;;25.32;38.58
7918;BME280;4004;42.624;23.386;2023-05-19T06:53:42;94461.91;;;25.31;39.19
7918;BME280;4004;42.624;23.386;2023-05-19T06:56:09;94467.81;;;25.55;38.56
7918;BME280;4004;42.624;23.386;2023-05-19T06:58:35;94470.19;;;26.35;37.22
7918;BME280;4004;42.624;23.386;2023-05-19T07:01:03;94476.94;;;26.56;35.99
7918;BME280;4004;42.624;23.386;2023-05-19T07:03:30;94475.88;;;25.97;36.93
7918;BME280;4004;42.624;23.386;2023-05-19T07:05:57;94478.72;;;25.46;37.57
7918;BME280;4004;42.624;23.386;2023-05-19T07:08:24;94470.59;;;25.29;38.23
7918;BME280;4004;42.624;23.386;2023-05-19T07:10:53;94475.66;;;25.78;38.05
7918;BME280;4004;42.624;23.386;2023-05-19T07:13:20;94478.13;;;26.11;37.96
7918;BME280;4004;42.624;23.386;2023-05-19T07:15:47;94479.66;;;26.12;37.57
7918;BME280;4004;42.624;23.386;2023-05-19T07:18:14;94481.34;;;26.76;36.85
7918;BME280;4004;42.624;23.386;2023-05-19T07:20:41;94482.59;;;26.84;35.99
7918;BME280;4004;42.624;23.386;2023-05-19T07:23:07;94485.19;;;26.56;36.61
7918;BME280;4004;42.624;23.386;2023-05-19T07:25:34;94487.38;;;26.39;36.98
7918;BME280;4004;42.624;23.386;2023-05-19T07:28:02;94480.72;;;25.93;37.77
7918;BME280;4004;42.624;23.386;2023-05-19T07:30:29;94484.34;;;25.55;37.92
7918;BME280;4004;42.624;23.386;2023-05-19T07:32:56;94481.94;;;25.31;38.28
7918;BME280;4004;42.624;23.386;2023-05-19T07:35:23;94483.88;;;25.05;39.21
7918;BME280;4004;42.624;23.386;2023-05-19T07:37:50;94472.44;;;24.81;39.50
7918;BME280;4004;42.624;23.386;2023-05-19T07:40:17;94473.41;;;24.74;39.57
7918;BME280;4004;42.624;23.386;2023-05-19T07:42:43;94473.72;;;24.51;40.03
7918;BME280;4004;42.624;23.386;2023-05-19T07:45:11;94477.09;;;24.42;40.89
7918;BME280;4004;42.624;23.386;2023-05-19T07:47:38;94468.34;;;23.89;42.00
7918;BME280;4004;42.624;23.386;2023-05-19T07:50:06;94472.09;;;24.24;41.33
7918;BME280;4004;42.624;23.386;2023-05-19T07:52:33;94471.47;;;24.33;41.08
7918;BME280;4004;42.624;23.386;2023-05-19T07:54:59;94466.94;;;24.81;40.35
7918;BME280;4004;42.624;23.386;2023-05-19T07:57:26;94477.53;;;25.08;39.69
7918;BME280;4004;42.624;23.386;2023-05-19T07:59:53;94474.22;;;24.75;40.53
7918;BME280;4004;42.624;23.386;2023-05-19T08:02:21;94471.75;;;24.51;40.87
7918;BME280;4004;42.624;23.386;2023-05-19T08:04:48;94469.94;;;24.45;41.51
7918;BME280;4004;42.624;23.386;2023-05-19T08:07:14;94471.13;;;24.31;41.26
7918;BME280;4004;42.624;23.386;2023-05-19T08:09:41;94466.00;;;23.87;41.91
7918;BME280;4004;42.624;23.386;2023-05-19T08:12:08;94475.34;;;23.90;41.87
7918;BME280;4004;42.624;23.386;2023-05-19T08:14:34;94480.75;;;23.93;41.50
7918;BME280;4004;42.624;23.386;2023-05-19T08:17:01;94465.53;;;23.76;41.66
7918;BME280;4004;42.624;23.386;2023-05-19T08:19:29;94469.72;;;23.81;42.36
7918;BME280;4004;42.624;23.386;2023-05-19T08:21:56;94473.66;;;23.63;42.25
7918;BME280;4004;42.624;23.386;2023-05-19T08:24:25;94468.81;;;23.22;43.83
7918;BME280;4004;42.624;23.386;2023-05-19T08:26:53;94463.66;;;23.24;43.46
7918;BME280;4004;42.624;23.386;2023-05-19T08:29:20;94453.44;;;23.57;43.66
7918;BME280;4004;42.624;23.386;2023-05-19T08:31:47;94461.25;;;23.75;42.92
7918;BME280;4004;42.624;23.386;2023-05-19T08:34:14;94459.50;;;23.65;43.78
7918;BME280;4004;42.624;23.386;2023-05-19T08:36:42;94471.03;;;23.59;42.76
7918;BME280;4004;42.624;23.386;2023-05-19T08:39:09;94469.03;;;23.76;42.91
7918;BME280;4004;42.624;23.386;2023-05-19T08:41:37;94457.22;;;23.47;43.53
7918;BME280;4004;42.624;23.386;2023-05-19T08:44:04;94467.25;;;23.21;44.44
7918;BME280;4004;42.624;23.386;2023-05-19T08:46:31;94456.38;;;23.17;44.51
7918;BME280;4004;42.624;23.386;2023-05-19T08:49:03;94454.72;;;23.03;44.24
7918;BME280;4004;42.624;23.386;2023-05-19T08:51:35;94457.91;;;23.02;44.72
7918;BME280;4004;42.624;23.386;2023-05-19T08:54:11;94455.03;;;22.89;44.66
7918;BME280;4004;42.624;23.386;2023-05-19T08:56:42;94467.16;;;22.71;44.84
7918;BME280;4004;42.624;23.386;2023-05-19T08:59:09;94457.50;;;22.47;45.00
7918;BME280;4004;42.624;23.386;2023-05-19T09:01:36;94456.88;;;21.99;46.26
7918;BME280;4004;42.624;23.386;2023-05-19T09:04:04;94469.13;;;21.71;46.41
7918;BME280;4004;42.624;23.386;2023-05-19T09:06:31;94462.78;;;21.54;47.43
7918;BME280;4004;42.624;23.386;2023-05-19T09:08:58;94458.38;;;21.37;49.68
7918;BME280;4004;42.624;23.386;2023-05-19T09:11:26;94456.34;;;21.17;49.19
7918;BME280;4004;42.624;23.386;2023-05-19T09:13:53;94447.44;;;21.37;47.71
7918;BME280;4004;42.624;23.386;2023-05-19T09:16:20;94444.69;;;21.37;49.91
7918;BME280;4004;42.624;23.386;2023-05-19T09:18:53;94447.97;;;21.28;50.04
7918;BME280;4004;42.624;23.386;2023-05-19T09:21:26;94442.47;;;21.04;49.06
7918;BME280;4004;42.624;23.386;2023-05-19T09:23:55;94444.19;;;20.67;50.76
7918;BME280;4004;42.624;23.386;2023-05-19T09:26:22;94442.75;;;20.59;49.93
7918;BME280;4004;42.624;23.386;2023-05-19T09:28:50;94432.56;;;20.63;49.43
7918;BME280;4004;42.624;23.386;2023-05-19T09:31:17;94440.91;;;20.49;51.95
7918;BME280;4004;42.624;23.386;2023-05-19T09:33:43;94436.63;;;20.48;50.95
7918;BME280;4004;42.624;23.386;2023-05-19T09:36:10;94427.44;;;20.35;51.18
7918;BME280;4004;42.624;23.386;2023-05-19T09:38:37;94431.69;;;20.39;53.30
7918;BME280;4004;42.624;23.386;2023-05-19T09:41:06;94438.16;;;20.18;56.01
7918;BME280;4004;42.624;23.386;2023-05-19T09:43:33;94444.22;;;20.02;54.63
7918;BME280;4004;42.624;23.386;2023-05-19T09:46:04;94433.28;;;20.02;54.23
7918;BME280;4004;42.624;23.386;2023-05-19T09:48:32;94423.50;;;20.05;53.83
7918;BME280;4004;42.624;23.386;2023-05-19T09:50:59;94432.06;;;20.07;53.47
7918;BME280;4004;42.624;23.386;2023-05-19T09:53:28;94424.22;;;20.13;52.76
7918;BME280;4004;42.624;23.386;2023-05-19T09:55:55;94422.44;;;19.99;54.05
7918;BME280;4004;42.624;23.386;2023-05-19T09:58:23;94426.06;;;19.88;57.53
7918;BME280;4004;42.624;23.386;2023-05-19T10:00:51;94423.56;;;20.01;57.81
7918;BME280;4004;42.624;23.386;2023-05-19T10:03:21;94417.47;;;20.21;55.83
7918;BME280;4004;42.624;23.386;2023-05-19T10:05:49;94422.50;;;20.26;55.09
7918;BME280;4004;42.624;23.386;2023-05-19T10:08:16;94416.72;;;19.86;54.73
7918;BME280;4004;42.624;23.386;2023-05-19T10:10:44;94415.66;;;19.76;54.90
7918;BME280;4004;42.624;23.386;2023-05-19T10:13:12;94410.44;;;19.89;55.19
7918;BME280;4004;42.624;23.386;2023-05-19T10:15:40;94412.22;;;20.03;53.71
7918;BME280;4004;42.624;23.386;2023-05-19T10:18:08;94424.34;;;20.02;56.54
7918;BME280;4004;42.624;23.386;2023-05-19T10:20:36;94404.19;;;19.92;54.10
7918;BME280;4004;42.624;23.386;2023-05-19T10:23:04;94409.47;;;20.06;55.56
7918;BME280;4004;42.624;23.386;2023-05-19T10:25:31;94396.56;;;20.11;56.35
7918;BME280;4004;42.624;23.386;2023-05-19T10:28:01;94406.53;;;20.21;55.09
7918;BME280;4004;42.624;23.386;2023-05-19T10:30:33;94405.16;;;20.09;54.88
7918;BME280;4004;42.624;23.386;2023-05-19T10:33:02;94406.41;;;20.01;59.18
7918;BME280;4004;42.624;23.386;2023-05-19T10:35:46;94390.38;;;20.06;53.51
7918;BME280;4004;42.624;23.386;2023-05-19T10:38:25;94395.34;;;20.12;53.40
7918;BME280;4004;42.624;23.386;2023-05-19T10:41:01;94397.06;;;20.02;50.79
7918;BME280;4004;42.624;23.386;2023-05-19T10:43:41;94398.53;;;20.10;53.99
7918;BME280;4004;42.624;23.386;2023-05-19T10:46:09;94395.00;;;20.09;51.53
7918;BME280;4004;42.624;23.386;2023-05-19T10:48:36;94403.50;;;20.15;51.91
7918;BME280;4004;42.624;23.386;2023-05-19T10:51:05;94392.59;;;20.15;52.76
7918;BME280;4004;42.624;23.386;2023-05-19T10:53:40;94395.13;;;20.29;51.42
7918;BME280;4004;42.624;23.386;2023-05-19T10:56:10;94392.81;;;20.55;53.73
7918;BME280;4004;42.624;23.386;2023-05-19T10:58:52;94392.09;;;20.51;51.71
7918;BME280;4004;42.624;23.386;2023-05-19T11:01:19;94388.00;;;20.66;53.07
7918;BME280;4004;42.624;23.386;2023-05-19T11:03:49;94392.53;;;20.77;50.34
7918;BME280;4004;42.624;23.386;2023-05-19T11:06:26;94388.13;;;20.56;48.13
7918;BME280;4004;42.624;23.386;2023-05-19T11:08:57;94378.81;;;20.53;50.38
7918;BME280;4004;42.624;23.386;2023-05-19T11:11:25;94379.44;;;20.64;51.16
7918;BME280;4004;42.624;23.386;2023-05-19T11:13:53;94391.59;;;20.87;50.36
7918;BME280;4004;42.624;23.386;2023-05-19T11:16:27;94387.09;;;21.00;47.62
7918;BME280;4004;42.624;23.386;2023-05-19T11:18:55;94392.19;;;20.98;47.49
7918;BME280;4004;42.624;23.386;2023-05-19T11:21:23;94379.06;;;21.13;47.36
7918;BME280;4004;42.624;23.386;2023-05-19T11:23:50;94377.44;;;21.39;47.27
7918;BME280;4004;42.624;23.386;2023-05-19T11:26:39;94376.50;;;21.49;48.40
7918;BME280;4004;42.624;23.386;2023-05-19T11:29:06;94372.03;;;21.59;48.99
7918;BME280;4004;42.624;23.386;2023-05-19T11:31:34;94372.00;;;21.16;50.07
7918;BME280;4004;42.624;23.386;2023-05-19T11:34:02;94382.06;;;20.99;50.22
7918;BME280;4004;42.624;23.386;2023-05-19T11:36:32;94386.41;;;20.69;47.66
7918;BME280;4004;42.624;23.386;2023-05-19T11:39:01;94393.13;;;20.34;49.38
7918;BME280;4004;42.624;23.386;2023-05-19T11:41:28;94433.47;;;19.88;55.76
7918;BME280;4004;42.624;23.386;2023-05-19T11:43:55;94430.41;;;18.96;58.29
7918;BME280;4004;42.624;23.386;2023-05-19T11:46:22;94435.56;;;18.16;63.33
7918;BME280;4004;42.624;23.386;2023-05-19T11:48:49;94408.53;;;17.52;82.62
7918;BME280;4004;42.624;23.386;2023-05-19T11:51:16;94431.84;;;16.74;89.47
7918;BME280;4004;42.624;23.386;2023-05-19T11:53:44;94434.56;;;16.45;99.60
7918;BME280;4004;42.624;23.386;2023-05-19T11:56:11;94427.53;;;16.30;100.00
7918;BME280;4004;42.624;23.386;2023-05-19T11:58:39;94435.69;;;16.41;100.00
7918;BME280;4004;42.624;23.386;2023-05-19T12:01:06;94456.59;;;16.26;100.00
7918;BME280;4004;42.624;23.386;2023-05-19T12:03:34;94478.94;;;15.98;100.00
7918;BME280;4004;42.624;23.386;2023-05-19T12:06:02;94507.38;;;15.59;100.00
7918;BME280;4004;42.624;23.386;2023-05-19T12:08:31;94501.81;;;15.38;98.76
7918;BME280;4004;42.624;23.386;2023-05-19T12:10:59;94481.13;;;15.15;96.02
7918;BME280;4004;42.624;23.386;2023-05-19T12:13:26;94489.88;;;14.94;100.00
7918;BME280;4004;42.624;23.386;2023-05-19T12:15:53;94475.38;;;14.76;100.00
7918;BME280;4004;42.624;23.386;2023-05-19T12:18:20;94465.97;;;15.03;100.00
7918;BME280;4004;42.624;23.386;2023-05-19T12:20:47;94458.34;;;15.20;100.00
7918;BME280;4004;42.624;23.386;2023-05-19T12:23:13;94462.25;;;15.29;100.00
7918;BME280;4004;42.624;23.386;2023-05-19T12:25:40;94453.06;;;15.45;100.00
7918;BME280;4004;42.624;23.386;2023-05-19T12:28:08;94454.31;;;15.54;100.00
7918;BME280;4004;42.624;23.386;2023-05-19T12:30:36;94455.44;;;15.50;100.00
7918;BME280;4004;42.624;23.386;2023-05-19T12:33:02;94447.69;;;15.48;100.00
7918;BME280;4004;42.624;23.386;2023-05-19T12:35:30;94438.44;;;15.53;100.00
7918;BME280;4004;42.624;23.386;2023-05-19T12:38:01;94433.88;;;15.68;100.00
7918;BME280;4004;42.624;23.386;2023-05-19T12:40:28;94430.88;;;15.84;100.00
7918;BME280;4004;42.624;23.386;2023-05-19T12:42:55;94419.22;;;15.80;100.00
7918;BME280;4004;42.624;23.386;2023-05-19T12:45:24;94415.75;;;15.83;100.00
7918;BME280;4004;42.624;23.386;2023-05-19T12:47:52;94419.28;;;15.94;100.00
7918;BME280;4004;42.624;23.386;2023-05-19T12:50:19;94412.75;;;16.13;100.00
7918;BME280;4004;42.624;23.386;2023-05-19T12:52:55;94402.69;;;16.21;100.00
7918;BME280;4004;42.624;23.386;2023-05-19T12:55:23;94403.13;;;16.37;100.00
7918;BME280;4004;42.624;23.386;2023-05-19T12:57:51;94400.84;;;16.50;100.00
7918;BME280;4004;42.624;23.386;2023-05-19T13:00:21;94404.72;;;16.67;100.00
7918;BME280;4004;42.624;23.386;2023-05-19T13:03:01;94402.44;;;16.90;94.14
7918;BME280;4004;42.624;23.386;2023-05-19T13:05:30;94397.75;;;17.12;91.47
7918;BME280;4004;42.624;23.386;2023-05-19T13:07:58;94395.75;;;17.38;86.85
7918;BME280;4004;42.624;23.386;2023-05-19T13:10:27;94387.19;;;17.47;83.53
7918;BME280;4004;42.624;23.386;2023-05-19T13:12:54;94399.22;;;17.56;78.47
7918;BME280;4004;42.624;23.386;2023-05-19T13:15:22;94391.00;;;17.67;77.48
7918;BME280;4004;42.624;23.386;2023-05-19T13:17:50;94392.59;;;17.68;78.40
7918;BME280;4004;42.624;23.386;2023-05-19T13:20:18;94393.34;;;17.69;74.61